• Join FlightAware (Why Join?)
  • Login
  • US Flag 
08:53PM EST


 

Airport Tracker/Info


-or-


 

Live Flight TrackerFlight Track Log ✈ N4148L ✈ 17-Apr-2014 ✈ KBGF - 4G4

Flight Track Log - Related Links

Times and Time Zones

All times are in EDT time to prevent confusion due to time zone crossing. See the N4148L flight status page for this flight to view local times or setup timezone preferences in your user account.

Time Position Orientation Groundspeed Altitude Reporting Facility
EDT Latitude Longitude Course Direction KTS MPH feet Rate Location/Type
01:46PM 35.3508 -85.9222 35° Northeast 129 148 3,800  Level Memphis Center
01:47PM 35.3825 -85.8981 32° Northeast 139 160 4,300 480 Climbing Memphis Center
01:48PM 35.3754 -85.8899 34° Northeast  Level FlightAware Approximate
01:48PM 35.4131 -85.8761 30° Northeast 133 153 4,800  Level Memphis Center
01:49PM 35.4141 -85.8525 39° Northeast  Level FlightAware Approximate
01:49PM 35.4425 -85.8492 37° Northeast 132 152 5,300  Level Memphis Center
01:50PM 35.4533 -85.8159 35° Northeast  Level FlightAware Approximate
01:50PM 35.4767 -85.8178 37° Northeast 130 150 5,900  Level Memphis Center
01:51PM 35.4935 -85.7809 35° Northeast  Level FlightAware Approximate
01:51PM 35.5056 -85.7917 36° Northeast 129 148 6,400  Level Memphis Center
01:52PM 35.5358 -85.7675 33° Northeast 129 148 6,900 480 Climbing Memphis Center
01:53PM 35.5664 -85.7422 34° Northeast 132 152 7,500 480 Climbing Memphis Center
01:54PM 35.5992 -85.7150 34° Northeast 136 157 8,000 420 Climbing Memphis Center
01:55PM 35.6300 -85.6883 35° Northeast 136 157 8,400 420 Climbing Memphis Center
01:56PM 35.6678 -85.6586 33° Northeast 136 157 8,900 240 Climbing Memphis Center
01:57PM 35.7028 -85.6278 36° Northeast 146 168 9,000  Climbing Memphis Center
01:58PM 35.7444 -85.5936 34° Northeast 170 196 9,000  Level Memphis Center
01:59PM 35.7861 -85.5572 35° Northeast 177 204 9,000  Level Memphis Center
02:00PM 35.8267 -85.5217 35° Northeast 178 205 9,000  Level Memphis Center
02:01PM 35.8664 -85.4825 39° Northeast 179 206 9,000  Level Memphis Center
02:02PM 35.9053 -85.4442 39° Northeast 179 206 9,000  Level Memphis Center
02:03PM 35.9539 -85.3975 38° Northeast 179 206 9,000  Level Memphis Center
02:04PM 35.9950 -85.3603 36° Northeast 179 206 9,000  Level Memphis Center
02:05PM 36.0358 -85.3222 37° Northeast 180 207 9,000  Level Memphis Center
02:06PM 36.0775 -85.2839 37° Northeast 181 208 9,000  Level Memphis Center
02:07PM 36.1186 -85.2450 37° Northeast 182 209 9,000  Level Memphis Center
02:08PM 36.1608 -85.2078 35° Northeast 182 209 9,000  Level Indianapolis Center
02:09PM 36.2117 -85.1625 36° Northeast 183 211 9,000  Level Indianapolis Center
02:10PM 36.2542 -85.1244 36° Northeast 184 212 9,000  Level Indianapolis Center
02:11PM 36.2958 -85.0856 37° Northeast 185 213 9,000  Level Indianapolis Center
02:12PM 36.3397 -85.0489 34° Northeast 185 213 9,000  Level Indianapolis Center
02:14PM 36.3811 -85.0100 37° Northeast 186 214 9,000  Level Indianapolis Center
02:15PM 36.4239 -84.9711 36° Northeast 186 214 9,000  Level Indianapolis Center
02:16PM 36.4664 -84.9322 36° Northeast 189 217 9,000  Level Indianapolis Center
02:17PM 36.5206 -84.8894 32° Northeast 189 217 9,000  Level Indianapolis Center
02:18PM 36.5636 -84.8519 35° Northeast 189 217 9,000  Level Indianapolis Center
02:19PM 36.6081 -84.8172 32° Northeast 189 217 9,000  Level Indianapolis Center
02:20PM 36.6539 -84.7839 30° Northeast 189 217 9,000  Level Indianapolis Center
02:21PM 36.7000 -84.7514 29° Northeast 189 217 9,000  Level Indianapolis Center
02:22PM 36.7444 -84.7147 33° Northeast 189 217 9,000  Level Indianapolis Center
02:23PM 36.7886 -84.6794 33° Northeast 190 219 9,000  Level Indianapolis Center
02:24PM 36.8408 -84.6344 35° Northeast 190 219 9,000  Level Indianapolis Center
02:25PM 36.8842 -84.5953 36° Northeast 190 219 9,000  Level Indianapolis Center
02:26PM 36.9278 -84.5561 36° Northeast 190 219 9,000  Level Indianapolis Center
02:27PM 36.9697 -84.5153 38° Northeast 190 219 9,000  Level Indianapolis Center
02:28PM 37.0167 -84.4731 36° Northeast 190 219 9,000  Level Indianapolis Center
02:29PM 37.0600 -84.4317 37° Northeast 191 220 9,000  Level Indianapolis Center
02:30PM 37.1028 -84.3933 36° Northeast 191 220 9,000  Level Indianapolis Center
02:31PM 37.1458 -84.3519 37° Northeast 193 222 9,000  Level Indianapolis Center
02:32PM 37.1961 -84.3050 37° Northeast 193 222 9,000  Level Indianapolis Center
02:33PM 37.2375 -84.2644 38° Northeast 192 221 9,000  Level Indianapolis Center
02:34PM 37.2814 -84.2233 37° Northeast 192 221 9,000  Level Indianapolis Center
02:35PM 37.3242 -84.1808 38° Northeast 193 222 9,000  Level Indianapolis Center
02:36PM 37.3672 -84.1394 37° Northeast 193 222 9,000  Level Indianapolis Center
02:37PM 37.4108 -84.1006 35° Northeast 193 222 9,000  Level Indianapolis Center
02:38PM 37.4608 -84.0522 37° Northeast 193 222 9,000  Level Indianapolis Center
02:39PM 37.5044 -84.0128 36° Northeast 193 222 9,000  Level Indianapolis Center
02:40PM 37.5489 -83.9717 36° Northeast 195 224 9,000  Level Indianapolis Center
02:41PM 37.5919 -83.9308 37° Northeast 195 224 9,000  Level Indianapolis Center
02:42PM 37.6347 -83.8908 37° Northeast 195 224 9,000  Level Indianapolis Center
02:44PM 37.6864 -83.8422 37° Northeast 195 224 9,000  Level Indianapolis Center
02:45PM 37.7286 -83.8006 38° Northeast 195 224 9,000  Level Indianapolis Center
02:46PM 37.7733 -83.7594 36° Northeast 195 224 9,000  Level Indianapolis Center
02:47PM 37.8167 -83.7192 36° Northeast 195 224 9,000  Level Indianapolis Center
02:48PM 37.8611 -83.6783 36° Northeast 195 224 9,000  Level Indianapolis Center
02:49PM 37.9058 -83.6383 35° Northeast 195 224 9,000  Level Indianapolis Center
02:50PM 37.9569 -83.5931 35° Northeast 195 224 9,000  Level Indianapolis Center
02:51PM 38.0014 -83.5525 36° Northeast 195 224 9,000  Level Indianapolis Center
02:52PM 38.0442 -83.5122 37° Northeast 195 224 9,000  Level Indianapolis Center
02:53PM 38.0886 -83.4733 35° Northeast 194 223 9,000  Level Indianapolis Center
02:54PM 38.1333 -83.4336 35° Northeast 194 223 9,000  Level Indianapolis Center
02:55PM 38.1856 -83.3872 35° Northeast 194 223 9,000  Level Indianapolis Center
02:56PM 38.2286 -83.3458 37° Northeast 194 223 9,000  Level Indianapolis Center
02:57PM 38.2725 -83.3050 36° Northeast 194 223 9,000  Level Indianapolis Center
02:58PM 38.3150 -83.2628 38° Northeast 194 223 9,000  Level Indianapolis Center
02:59PM 38.3592 -83.2225 36° Northeast 194 223 9,000  Level Indianapolis Center
03:00PM 38.4014 -83.1792 39° Northeast 194 223 9,000  Level Indianapolis Center
03:01PM 38.4508 -83.1308 37° Northeast 194 223 9,000  Level Indianapolis Center
03:02PM 38.4947 -83.0906 36° Northeast 194 223 9,000  Level Indianapolis Center
03:03PM 38.5383 -83.0486 37° Northeast 194 223 9,000  Level Indianapolis Center
03:04PM 38.5825 -83.0075 36° Northeast 194 223 9,000  Level Indianapolis Center
03:05PM 38.6264 -82.9667 36° Northeast 194 223 9,000  Level Indianapolis Center
03:06PM 38.6808 -82.9217 33° Northeast 197 227 9,000  Level Indianapolis Center
03:07PM 38.7236 -82.8800 37° Northeast 195 224 9,000  Level Indianapolis Center
03:08PM 38.7675 -82.8406 35° Northeast 195 224 9,000  Level Indianapolis Center
03:09PM 38.8106 -82.8003 36° Northeast 194 223 9,000  Level Indianapolis Center
03:10PM 38.8547 -82.7592 36° Northeast 194 223 9,000  Level Indianapolis Center
03:11PM 38.8986 -82.7181 36° Northeast 194 223 9,000  Level Indianapolis Center
03:12PM 38.9522 -82.6694 35° Northeast 194 223 9,000  Level Indianapolis Center
03:14PM 38.9956 -82.6278 37° Northeast 194 223 9,000  Level Indianapolis Center
03:15PM 39.0383 -82.5864 37° Northeast 194 223 9,000  Level Indianapolis Center
03:16PM 39.0822 -82.5439 37° Northeast 194 223 9,000  Level Indianapolis Center
03:17PM 39.1250 -82.5019 37° Northeast 194 223 9,000  Level Indianapolis Center
03:18PM 39.1669 -82.4597 38° Northeast 194 223 9,000  Level Indianapolis Center
03:19PM 39.2086 -82.4164 39° Northeast 194 223 9,000  Level Indianapolis Center
03:20PM 39.2592 -82.3664 37° Northeast 194 223 9,000  Level Indianapolis Center
03:21PM 39.3022 -82.3258 36° Northeast 194 223 9,000  Level Indianapolis Center
03:22PM 39.3447 -82.2819 39° Northeast 194 223 9,000  Level Indianapolis Center
03:23PM 39.3878 -82.2411 36° Northeast 193 222 9,000  Level Indianapolis Center
03:24PM 39.4308 -82.1989 37° Northeast 193 222 9,000  Level Indianapolis Center
03:25PM 39.4803 -82.1497 38° Northeast 193 222 9,000  Level Indianapolis Center
03:26PM 39.5247 -82.1067 37° Northeast 193 222 9,000  Level Indianapolis Center
03:27PM 39.5675 -82.0628 38° Northeast 193 222 9,000  Level Indianapolis Center
03:28PM 39.6106 -82.0194 38° Northeast 193 222 9,000  Level Indianapolis Center
03:29PM 39.6525 -81.9775 38° Northeast 193 222 9,000  Level Indianapolis Center
03:30PM 39.6967 -81.9356 36° Northeast 193 222 9,000  Level Indianapolis Center
03:31PM 39.7450 -81.8867 38° Northeast 193 222 9,000  Level Indianapolis Center
03:32PM 39.7872 -81.8453 37° Northeast 193 222 9,000  Level Indianapolis Center
03:33PM 39.8292 -81.8031 38° Northeast 193 222 9,000  Level Indianapolis Center
03:34PM 39.8719 -81.7589 38° Northeast 194 223 9,000  Level Indianapolis Center
03:35PM 39.9156 -81.7172 36° Northeast 194 223 9,000  Level Indianapolis Center
03:36PM 39.9697 -81.6703 34° Northeast 194 223 9,000  Level Indianapolis Center
03:37PM 40.0117 -81.6342 33° Northeast 194 223 9,000 -300 Level Indianapolis Center
03:38PM 40.0567 -81.5908 36° Northeast 195 224 8,500 -480 Descending Indianapolis Center
03:40PM 40.1378 -81.5128 36° Northeast 204 235 7,800 -420 Descending Cleveland Center
03:41PM 40.1819 -81.4703 36° Northeast 201 231 7,400 -420 Descending Cleveland Center
03:42PM 40.2242 -81.4303 36° Northeast 192 221 7,000 -360 Descending Cleveland Center
03:43PM 40.2642 -81.3889 38° Northeast 187 215 6,700 -300 Descending Cleveland Center
03:44PM 40.3044 -81.3483 38° Northeast 186 214 6,400 -360 Descending Cleveland Center
03:45PM 40.3506 -81.3000 39° Northeast 180 207 6,000 -360 Descending Cleveland Center
03:46PM 40.3908 -81.2611 36° Northeast 180 207 5,700 -360 Descending Cleveland Center
03:47PM 40.4306 -81.2219 37° Northeast 180 207 5,300 -360 Descending Cleveland Center
03:48PM 40.4694 -81.1833 37° Northeast 179 206 5,000 -180 Descending Cleveland Center
03:49PM 40.5092 -81.1450 36° Northeast 179 206 5,000  Level Cleveland Center
03:50PM 40.5461 -81.1064 38° Northeast 176 203 5,000  Level Cleveland Center
03:51PM 40.5919 -81.0622 36° Northeast 173 199 5,000  Level Cleveland Center
03:52PM 40.6281 -81.0211 41° Northeast 173 199 5,000  Level Cleveland Center
03:53PM 40.6633 -80.9814 40° Northeast 172 198 5,000  Level Cleveland Center
03:55PM 40.7000 -80.9436 38° Northeast 170 196 5,000 -120 Level Cleveland Center
03:56PM 40.7378 -80.9014 40° Northeast 171 197 4,800 -300 Descending Cleveland Center
03:57PM 40.7778 -80.8603 38° Northeast 177 204 4,400 -420 Descending Cleveland Center
03:58PM 40.8222 -80.8122 39° Northeast 177 204 4,000 -300 Descending Cleveland Center
03:59PM 40.8586 -80.7719 40° Northeast 177 204 3,900 -120 Descending Cleveland Center